Kissimmee, Florida
Current Conditions -  °F | °C
As of 6:50 PM on Saturday 25 Oct 2014 (Local Time) from KISM Reporting Station
Clear Clear  
Wind Chill: 75°   Ceiling: Unl
Heat Index: 75°   Visibility: 10mi
Dew Point: 55°   Wind: 7mph
Humidity: 50%   Direction: 330°NNW
Pressure: 29.95"   Gusts: NA
Location:  28.29°N, 81.41°W
Report Text: KISM 252250Z 33006KT 10SM SKC 24/13 A2995
Loading
Personal Weather Stations






























Interactive Weather Map New forecast layout! Learn more

10-Day Weather Forecast

Advertisements
Track Severe Weather on mobile